createdAt,value
2018-09-18T00:00:09.403Z,10.10
2018-09-18T00:02:41.900Z,9.18
2018-09-18T00:05:12.891Z,6.85
2018-09-18T00:07:43.750Z,9.53
2018-09-18T00:10:14.659Z,9.95
2018-09-18T00:12:44.649Z,7.92
2018-09-18T00:15:15.704Z,7.95
2018-09-18T00:17:46.696Z,7.90
2018-09-18T00:20:16.742Z,7.97
2018-09-18T00:22:47.475Z,7.58
2018-09-18T00:25:18.494Z,8.00
2018-09-18T00:27:48.768Z,7.53
2018-09-18T00:30:18.951Z,7.87
2018-09-18T00:32:49.993Z,9.20
2018-09-18T00:35:20.252Z,7.85
2018-09-18T00:37:52.167Z,8.18
2018-09-18T00:40:23.836Z,10.53
2018-09-18T00:42:54.174Z,11.18
2018-09-18T00:45:24.282Z,8.58
2018-09-18T00:47:55.964Z,8.53
2018-09-18T00:50:26.207Z,7.90
2018-09-18T00:52:58.925Z,8.20
2018-09-18T00:55:30.321Z,7.08
2018-09-18T00:58:01.985Z,7.37
2018-09-18T01:00:31.949Z,8.13
2018-09-18T01:03:02.780Z,8.15
2018-09-18T01:05:34.384Z,6.90
2018-09-18T01:08:04.199Z,8.05
2018-09-18T01:10:34.542Z,7.40
2018-09-18T01:13:06.053Z,7.40
2018-09-18T01:15:37.381Z,6.20
2018-09-18T01:18:07.346Z,7.42
2018-09-18T01:20:37.950Z,6.20
2018-09-18T01:23:07.969Z,6.47
2018-09-18T01:25:37.912Z,5.90
2018-09-18T01:28:07.975Z,7.83
2018-09-18T01:30:39.677Z,6.87
2018-09-18T01:33:11.316Z,5.70
2018-09-18T01:35:43.941Z,7.60
2018-09-18T01:38:15.589Z,6.20
2018-09-18T01:40:46.606Z,9.05
2018-09-18T01:43:18.955Z,5.80
2018-09-18T01:45:50.897Z,6.05
2018-09-18T01:48:21.003Z,7.15
2018-09-18T01:50:51.543Z,7.62
2018-09-18T01:53:21.533Z,6.37
2018-09-18T01:55:53.701Z,6.90
2018-09-18T01:58:24.595Z,5.80
2018-09-18T02:00:56.529Z,7.90
2018-09-18T02:03:30.029Z,8.08
2018-09-18T02:06:03.401Z,7.22
2018-09-18T02:08:33.741Z,6.90
2018-09-18T02:11:03.553Z,7.25
2018-09-18T02:13:33.500Z,6.08
2018-09-18T02:16:03.624Z,7.05
2018-09-18T02:18:33.416Z,8.23
2018-09-18T02:21:04.618Z,8.38
2018-09-18T02:23:35.338Z,7.78
2018-09-18T02:26:06.542Z,7.50
2018-09-18T02:28:38.705Z,7.20
2018-09-18T02:31:08.650Z,8.88
2018-09-18T02:33:39.979Z,8.18
2018-09-18T02:36:10.100Z,8.13
2018-09-18T02:38:40.147Z,10.28
2018-09-18T02:41:10.651Z,7.28
2018-09-18T02:43:42.093Z,9.00
2018-09-18T02:46:12.734Z,9.53
2018-09-18T02:48:43.764Z,9.08
2018-09-18T02:51:15.189Z,7.65
2018-09-18T02:53:46.077Z,8.30
2018-09-18T02:56:15.806Z,10.82
2018-09-18T02:58:45.886Z,8.03
2018-09-18T03:01:16.014Z,6.87
2018-09-18T03:03:47.063Z,8.05
2018-09-18T03:06:16.868Z,7.22
2018-09-18T03:08:48.269Z,7.95
2018-09-18T03:11:18.777Z,9.63
2018-09-18T03:13:48.560Z,7.65
2018-09-18T03:16:20.742Z,7.53
2018-09-18T03:18:51.438Z,9.88
2018-09-18T03:21:22.409Z,8.88
2018-09-18T03:23:53.361Z,14.63
2018-09-18T03:26:23.159Z,10.65
2018-09-18T03:28:53.048Z,8.10
2018-09-18T03:31:24.627Z,8.55
2018-09-18T03:33:54.614Z,9.43
2018-09-18T03:36:26.411Z,8.50
2018-09-18T03:38:57.932Z,7.70
2018-09-18T03:41:29.725Z,8.78
2018-09-18T03:44:00.382Z,8.90
2018-09-18T03:46:32.716Z,7.95
2018-09-18T03:49:03.304Z,10.55
2018-09-18T03:51:34.457Z,8.68
2018-09-18T03:54:04.285Z,8.63
2018-09-18T03:56:34.390Z,8.63
2018-09-18T03:59:06.143Z,8.10
2018-09-18T04:01:36.166Z,11.45
2018-09-18T04:04:06.079Z,12.50
2018-09-18T04:06:37.355Z,8.60
2018-09-18T04:09:10.665Z,9.45
2018-09-18T04:11:41.281Z,9.08
2018-09-18T04:14:12.199Z,11.68
2018-09-18T04:16:44.827Z,8.75
2018-09-18T04:19:14.775Z,11.40
2018-09-18T04:21:44.973Z,10.55
2018-09-18T04:24:16.140Z,9.18
2018-09-18T04:26:46.875Z,11.57
2018-09-18T04:29:17.096Z,10.48
2018-09-18T04:31:59.386Z,9.78
2018-09-18T04:34:29.417Z,10.95
2018-09-18T04:36:59.642Z,9.93
2018-09-18T04:39:29.713Z,14.25
2018-09-18T04:42:01.520Z,10.78
2018-09-18T04:44:32.320Z,9.50
2018-09-18T04:47:03.056Z,9.43
2018-09-18T04:49:34.438Z,9.70
2018-09-18T04:52:05.724Z,10.18
2018-09-18T04:54:36.929Z,14.53
2018-09-18T04:57:06.907Z,11.80
2018-09-18T04:59:36.871Z,10.08
2018-09-18T05:02:07.253Z,12.45
2018-09-18T05:04:37.819Z,13.15
2018-09-18T05:07:07.827Z,10.20
2018-09-18T05:09:39.111Z,11.18
2018-09-18T05:12:09.182Z,12.78
2018-09-18T05:14:39.197Z,10.58
2018-09-18T05:17:09.114Z,11.90
2018-09-18T05:19:39.034Z,18.30
2018-09-18T05:22:10.572Z,22.25
2018-09-18T05:24:43.893Z,11.60
2018-09-18T05:27:14.041Z,10.80
2018-09-18T05:29:44.217Z,12.25
2018-09-18T05:32:14.742Z,11.05
2018-09-18T05:34:46.130Z,12.28
2018-09-18T05:37:18.057Z,13.00
2018-09-18T05:39:47.985Z,16.95
2018-09-18T05:42:19.832Z,11.75
2018-09-18T05:44:50.479Z,11.63
2018-09-18T05:47:21.522Z,12.40
2018-09-18T05:49:52.543Z,14.90
2018-09-18T05:52:23.069Z,11.75
2018-09-18T05:54:57.353Z,13.55
2018-09-18T05:57:27.625Z,12.93
2018-09-18T05:59:57.621Z,10.85
2018-09-18T06:02:28.868Z,10.72
2018-09-18T06:04:59.010Z,24.47
2018-09-18T06:07:30.575Z,15.53
2018-09-18T06:10:01.101Z,11.43
2018-09-18T06:12:31.523Z,12.53
2018-09-18T06:15:01.823Z,12.13
2018-09-18T06:17:31.896Z,10.80
2018-09-18T06:20:04.419Z,11.90
2018-09-18T06:22:35.038Z,13.78
2018-09-18T06:27:45.941Z,14.05
2018-09-18T06:30:18.424Z,12.82
2018-09-18T06:32:49.659Z,13.62
2018-09-18T06:35:19.665Z,15.32
2018-09-18T06:37:50.017Z,13.62
2018-09-18T06:40:22.770Z,11.15
2018-09-18T06:42:54.049Z,14.18
2018-09-18T06:45:26.729Z,10.50
2018-09-18T06:47:57.689Z,9.70
2018-09-18T06:50:28.027Z,11.85
2018-09-18T06:52:57.981Z,9.85
2018-09-18T06:55:29.024Z,9.65
2018-09-18T06:57:59.997Z,10.05
2018-09-18T07:00:30.001Z,8.55
2018-09-18T07:03:01.022Z,10.32
2018-09-18T07:07:30.726Z,9.15
2018-09-18T07:10:01.166Z,11.33
2018-09-18T07:12:31.518Z,9.10
2018-09-18T07:15:02.042Z,7.90
2018-09-18T07:17:32.481Z,7.60
2018-09-18T07:20:03.119Z,8.98
2018-09-18T07:22:34.018Z,7.45
2018-09-18T07:25:05.075Z,8.00
2018-09-18T07:27:37.418Z,9.55
2018-09-18T07:30:09.479Z,9.18
2018-09-18T07:32:39.552Z,9.03
2018-09-18T07:35:10.279Z,9.80
2018-09-18T07:37:41.421Z,9.58
2018-09-18T07:40:13.098Z,10.23
2018-09-18T07:42:43.124Z,15.15
2018-09-18T07:45:13.767Z,12.85
2018-09-18T07:47:44.923Z,16.17
2018-09-18T07:50:15.853Z,13.18
2018-09-18T07:52:49.691Z,10.75
2018-09-18T07:55:19.676Z,17.32
2018-09-18T07:57:49.996Z,29.18
2018-09-18T08:00:20.231Z,19.65
2018-09-18T08:02:51.054Z,15.93
2018-09-18T08:05:21.199Z,11.57
2018-09-18T08:07:57.614Z,8.95
2018-09-18T08:10:30.293Z,8.20
2018-09-18T08:13:00.346Z,7.45
2018-09-18T08:15:31.058Z,10.38
2018-09-18T08:18:02.185Z,7.67
2018-09-18T08:20:32.434Z,7.85
2018-09-18T08:23:02.963Z,10.40
2018-09-18T08:25:33.956Z,6.83
2018-09-18T08:28:05.017Z,7.08
2018-09-18T08:30:35.115Z,6.55
2018-09-18T08:33:06.237Z,6.80
2018-09-18T08:35:36.629Z,7.83
2018-09-18T08:38:06.768Z,7.80
2018-09-18T08:40:36.718Z,9.05
2018-09-18T08:43:06.670Z,8.70
2018-09-18T08:45:37.833Z,8.15
2018-09-18T08:48:08.182Z,7.08
2018-09-18T08:50:38.398Z,9.23
2018-09-18T08:53:08.899Z,6.60
2018-09-18T08:55:38.927Z,6.83
2018-09-18T08:58:10.055Z,6.10
2018-09-18T09:00:40.803Z,5.30
2018-09-18T09:03:12.092Z,5.58
2018-09-18T09:05:44.444Z,10.53
2018-09-18T09:08:14.936Z,6.65
2018-09-18T09:10:44.888Z,6.10
2018-09-18T09:13:15.935Z,5.95
2018-09-18T09:15:46.097Z,5.87
2018-09-18T09:18:17.045Z,5.80
2018-09-18T09:20:47.498Z,5.28
2018-09-18T09:23:18.550Z,5.85
2018-09-18T09:25:48.517Z,6.10
2018-09-18T09:28:19.051Z,6.62
2018-09-18T09:30:49.628Z,6.37
2018-09-18T09:33:19.673Z,7.72
2018-09-18T09:35:50.223Z,6.33
2018-09-18T09:38:20.555Z,6.30
2018-09-18T09:40:50.730Z,7.58
2018-09-18T09:43:22.478Z,6.53
2018-09-18T09:45:53.389Z,8.68
2018-09-18T09:48:25.455Z,6.33
2018-09-18T09:50:59.592Z,5.80
2018-09-18T09:53:29.590Z,9.75
2018-09-18T09:55:59.643Z,6.53
2018-09-18T09:58:29.756Z,7.42
2018-09-18T10:01:05.024Z,7.37
2018-09-18T10:03:35.587Z,6.25
2018-09-18T10:06:06.538Z,5.90
2018-09-18T10:08:36.587Z,6.35
2018-09-18T10:11:06.720Z,6.20
2018-09-18T10:13:43.164Z,7.65
2018-09-18T10:16:14.013Z,8.83
2018-09-18T10:18:47.282Z,7.45
2018-09-18T10:21:18.238Z,5.87
2018-09-18T10:23:48.634Z,8.30
2018-09-18T10:26:19.525Z,6.35
2018-09-18T10:28:49.521Z,6.42
2018-09-18T10:31:19.781Z,6.25
2018-09-18T10:33:52.704Z,7.10
2018-09-18T10:36:23.328Z,5.20
2018-09-18T10:38:53.374Z,6.05
2018-09-18T10:41:25.669Z,6.83
2018-09-18T10:43:56.648Z,10.40
2018-09-18T10:46:27.135Z,9.30
2018-09-18T10:48:58.153Z,7.12
2018-09-18T10:51:28.531Z,8.70
2018-09-18T10:53:59.137Z,7.97
2018-09-18T10:56:29.418Z,6.50
2018-09-18T10:59:00.211Z,6.28
2018-09-18T11:01:32.415Z,8.88
2018-09-18T11:04:02.357Z,6.37
2018-09-18T11:06:33.066Z,7.35
2018-09-18T11:09:03.275Z,6.40
2018-09-18T11:11:33.217Z,6.50
2018-09-18T11:14:03.411Z,9.08
2018-09-18T11:16:33.993Z,5.30
2018-09-18T11:19:05.128Z,8.43
2018-09-18T11:21:37.107Z,8.23
2018-09-18T11:24:12.296Z,5.85
2018-09-18T11:26:42.355Z,5.97
2018-09-18T11:29:13.133Z,5.22
2018-09-18T11:31:47.203Z,6.58
2018-09-18T11:34:17.428Z,6.45
2018-09-18T11:36:47.645Z,7.47
2018-09-18T11:39:18.417Z,5.58
2018-09-18T11:41:49.161Z,5.35
2018-09-18T11:44:19.332Z,5.72
2018-09-18T11:46:52.306Z,5.28
2018-09-18T11:49:23.703Z,6.15
2018-09-18T11:51:54.524Z,6.00
2018-09-18T11:54:24.565Z,6.92
2018-09-18T11:56:56.429Z,6.92
2018-09-18T11:59:26.471Z,5.45
2018-09-18T12:01:56.642Z,8.70
2018-09-18T12:04:26.577Z,5.28
2018-09-18T12:06:56.889Z,5.05
2018-09-18T12:09:26.837Z,5.80
2018-09-18T12:11:56.804Z,4.80
2018-09-18T12:14:27.944Z,5.45
2018-09-18T12:16:58.315Z,8.80
2018-09-18T12:19:28.694Z,6.17
2018-09-18T12:21:58.575Z,6.05
2018-09-18T12:24:29.925Z,4.78
2018-09-18T12:27:01.047Z,4.85
2018-09-18T12:29:31.687Z,6.97
2018-09-18T12:32:02.055Z,5.85
2018-09-18T12:34:31.992Z,7.33
2018-09-18T12:37:02.007Z,8.88
2018-09-18T12:39:32.569Z,6.80
2018-09-18T12:42:02.844Z,7.50
2018-09-18T12:44:32.939Z,5.50
2018-09-18T12:47:03.295Z,5.40
2018-09-18T12:49:34.176Z,6.05
2018-09-18T12:52:04.898Z,6.00
2018-09-18T12:54:35.753Z,9.03
2018-09-18T12:57:06.061Z,5.70
2018-09-18T12:59:35.967Z,7.67
2018-09-18T13:02:05.970Z,5.58
2018-09-18T13:04:38.601Z,9.53
2018-09-18T13:07:09.783Z,6.85
2018-09-18T13:09:40.125Z,5.08
2018-09-18T13:12:11.466Z,5.62
2018-09-18T13:14:42.856Z,5.67
2018-09-18T13:17:13.247Z,7.92
2018-09-18T13:19:45.323Z,5.53
2018-09-18T13:22:15.891Z,5.85
2018-09-18T13:24:46.020Z,5.70
2018-09-18T13:27:16.487Z,4.00
2018-09-18T13:29:47.863Z,5.55
2018-09-18T13:32:19.253Z,6.75
2018-09-18T13:34:52.284Z,7.00
2018-09-18T13:37:22.855Z,6.08
2018-09-18T13:39:53.804Z,8.35
2018-09-18T13:42:23.949Z,6.22
2018-09-18T13:44:56.660Z,5.80
2018-09-18T13:47:28.146Z,8.38
2018-09-18T13:49:58.789Z,5.87
2018-09-18T13:52:29.316Z,5.72
2018-09-18T13:55:00.073Z,7.65
2018-09-18T13:57:30.106Z,10.23
2018-09-18T14:00:00.272Z,5.20
2018-09-18T14:02:31.663Z,5.53
2018-09-18T14:05:01.858Z,4.50
2018-09-18T14:07:32.747Z,7.45
2018-09-18T14:10:03.823Z,5.67
2018-09-18T14:12:34.892Z,5.50
2018-09-18T14:15:09.634Z,5.00
2018-09-18T14:17:39.820Z,6.65
2018-09-18T14:20:12.484Z,8.05
2018-09-18T14:22:42.946Z,5.87
2018-09-18T14:25:16.179Z,6.55
2018-09-18T14:27:48.028Z,5.67
2018-09-18T14:30:20.286Z,6.78
2018-09-18T14:32:51.653Z,6.22
2018-09-18T14:35:23.990Z,6.20
2018-09-18T14:37:54.204Z,5.42
2018-09-18T14:40:24.226Z,6.53
2018-09-18T14:42:56.237Z,7.50
2018-09-18T14:45:27.061Z,4.85
2018-09-18T14:47:57.183Z,5.45
2018-09-18T14:50:28.511Z,6.70
2018-09-18T14:52:59.276Z,5.37
2018-09-18T14:55:35.170Z,7.10
2018-09-18T14:58:05.959Z,6.15
2018-09-18T15:00:37.316Z,7.12
2018-09-18T15:03:07.926Z,4.92
2018-09-18T15:05:38.038Z,7.83
2018-09-18T15:08:08.411Z,5.25
2018-09-18T15:10:38.713Z,5.92
2018-09-18T15:13:08.800Z,5.20
2018-09-18T15:15:39.487Z,8.65
2018-09-18T15:18:09.691Z,5.92
2018-09-18T15:20:40.149Z,7.90
2018-09-18T15:23:10.692Z,5.53
2018-09-18T15:25:40.831Z,5.75
2018-09-18T15:28:10.758Z,6.55
2018-09-18T15:30:40.900Z,5.28
2018-09-18T15:33:10.955Z,5.72
2018-09-18T15:35:42.479Z,8.05
2018-09-18T15:38:13.976Z,6.10
2018-09-18T15:40:44.901Z,7.92
2018-09-18T15:43:15.808Z,6.15
2018-09-18T15:45:49.911Z,8.75
2018-09-18T15:48:19.948Z,5.40
2018-09-18T15:50:51.025Z,5.72
2018-09-18T15:53:22.222Z,5.30
2018-09-18T15:55:53.345Z,6.20
2018-09-18T15:58:25.031Z,6.17
2018-09-18T16:00:55.382Z,8.05
2018-09-18T16:03:27.509Z,8.43
2018-09-18T16:05:57.743Z,5.08
2018-09-18T16:08:27.662Z,5.33
2018-09-18T16:13:42.215Z,10.03
2018-09-18T16:16:12.368Z,9.73
2018-09-18T16:18:42.574Z,4.83
2018-09-18T16:21:13.195Z,8.90
2018-09-18T16:23:45.615Z,10.63
2018-09-18T16:26:17.776Z,9.35
2018-09-18T16:28:47.992Z,5.85
2018-09-18T16:31:18.789Z,7.78
2018-09-18T16:33:48.713Z,9.58
2018-09-18T16:36:19.334Z,10.45
2018-09-18T16:38:49.293Z,10.20
2018-09-18T16:41:19.277Z,13.70
2018-09-18T16:43:50.226Z,12.50
2018-09-18T16:46:20.887Z,13.88
2018-09-18T16:48:51.059Z,15.10
2018-09-18T16:51:21.059Z,12.25
2018-09-18T16:53:51.108Z,13.25
2018-09-18T16:56:21.050Z,14.15
2018-09-18T16:58:51.078Z,16.90
2018-09-18T17:01:22.372Z,18.12
2018-09-18T17:03:52.696Z,18.40
2018-09-18T17:06:22.786Z,13.22
2018-09-18T17:08:56.148Z,17.52
2018-09-18T17:11:26.233Z,15.10
2018-09-18T17:13:57.937Z,19.07
2018-09-18T17:16:28.159Z,17.00
2018-09-18T17:18:58.669Z,15.83
2018-09-18T17:21:34.841Z,17.48
2018-09-18T17:24:05.956Z,15.72
2018-09-18T17:26:36.134Z,17.45
2018-09-18T17:29:06.873Z,16.62
2018-09-18T17:31:36.763Z,15.78
2018-09-18T17:34:07.544Z,18.67
2018-09-18T17:36:39.684Z,21.02
2018-09-18T17:39:12.283Z,18.92
2018-09-18T17:41:42.535Z,19.92
2018-09-18T17:44:12.600Z,16.75
2018-09-18T17:46:43.795Z,16.55
2018-09-18T17:49:13.993Z,16.67
2018-09-18T17:51:44.216Z,16.42
2018-09-18T17:54:14.269Z,15.65
2018-09-18T17:56:44.953Z,20.85
2018-09-18T17:59:16.106Z,14.47
2018-09-18T18:01:46.197Z,15.72
2018-09-18T18:04:16.760Z,15.72
2018-09-18T18:06:48.036Z,21.23
2018-09-18T18:09:19.598Z,19.20
2018-09-18T18:11:51.578Z,15.03
2018-09-18T18:14:22.185Z,16.15
2018-09-18T18:16:53.679Z,16.15
2018-09-18T18:19:24.364Z,15.35
2018-09-18T18:21:54.924Z,16.32
2018-09-18T18:24:25.392Z,14.15
2018-09-18T18:26:55.243Z,14.60
2018-09-18T18:29:25.659Z,13.18
2018-09-18T18:31:55.716Z,16.65
2018-09-18T18:37:04.917Z,13.38
2018-09-18T18:39:35.008Z,13.15
2018-09-18T18:42:05.533Z,13.88
2018-09-18T18:44:35.721Z,15.95
2018-09-18T18:47:06.494Z,22.45
2018-09-18T18:49:37.962Z,13.22
2018-09-18T18:52:10.699Z,15.05
2018-09-18T18:54:42.644Z,14.98
2018-09-18T18:57:13.237Z,15.93
2018-09-18T18:59:44.152Z,18.82
2018-09-18T19:02:17.118Z,15.30
2018-09-18T19:04:47.182Z,17.05
2018-09-18T19:07:17.043Z,9.08
2018-09-18T19:09:47.895Z,17.70
2018-09-18T19:12:18.082Z,16.55
2018-09-18T19:14:48.444Z,17.90
2018-09-18T19:17:19.119Z,13.08
2018-09-18T19:19:51.520Z,21.87
2018-09-18T19:22:23.775Z,17.37
2018-09-18T19:24:54.548Z,17.65
2018-09-18T19:27:26.058Z,20.23
2018-09-18T19:30:02.408Z,17.55
2018-09-18T19:32:33.149Z,20.68
2018-09-18T19:35:05.937Z,21.90
2018-09-18T19:37:40.333Z,18.85
2018-09-18T19:40:12.524Z,18.82
2018-09-18T19:42:44.451Z,19.25
2018-09-18T19:45:14.715Z,20.10
2018-09-18T19:47:47.268Z,19.45
2018-09-18T19:50:19.966Z,19.20
2018-09-18T19:52:51.184Z,18.05
2018-09-18T19:55:21.184Z,19.00
2018-09-18T19:57:51.445Z,22.85
2018-09-18T20:00:22.588Z,21.05
2018-09-18T20:02:53.291Z,15.78
2018-09-18T20:05:23.920Z,17.35
2018-09-18T20:07:55.688Z,19.62
2018-09-18T20:10:26.712Z,20.65
2018-09-18T20:12:57.572Z,21.12
2018-09-18T20:15:27.556Z,23.35
2018-09-18T20:17:57.529Z,24.65
2018-09-18T20:20:27.796Z,16.65
2018-09-18T20:22:58.306Z,22.95
2018-09-18T20:25:29.707Z,22.37
2018-09-18T20:27:59.642Z,25.02
2018-09-18T20:30:31.511Z,23.02
2018-09-18T20:33:02.783Z,19.20
2018-09-18T20:35:34.849Z,16.05
2018-09-18T20:38:04.857Z,17.42
2018-09-18T20:40:34.999Z,16.75
2018-09-18T20:43:06.141Z,17.10
2018-09-18T20:48:14.379Z,18.20
2018-09-18T20:50:44.438Z,17.25
2018-09-18T20:53:14.525Z,19.85
2018-09-18T20:55:44.514Z,16.52
2018-09-18T20:58:14.530Z,17.98
2018-09-18T21:00:44.402Z,16.40
2018-09-18T21:03:14.344Z,18.02
2018-09-18T21:05:44.364Z,18.45
2018-09-18T21:08:14.858Z,19.82
2018-09-18T21:10:45.020Z,15.68
2018-09-18T21:13:15.055Z,19.05
2018-09-18T21:15:45.326Z,18.77
2018-09-18T21:18:15.367Z,24.05
2018-09-18T21:20:46.122Z,17.92
2018-09-18T21:23:16.921Z,16.37
2018-09-18T21:26:19.558Z,17.67
2018-09-18T21:28:51.086Z,20.75
2018-09-18T21:31:22.757Z,19.32
2018-09-18T21:33:53.679Z,16.32
2018-09-18T21:36:25.631Z,16.55
2018-09-18T21:38:56.794Z,17.70
2018-09-18T21:41:26.986Z,22.22
2018-09-18T21:43:57.694Z,16.07
2018-09-18T21:46:27.884Z,14.83
2018-09-18T21:48:57.839Z,21.30
2018-09-18T21:51:30.188Z,17.55
2018-09-18T21:54:00.223Z,16.17
2018-09-18T21:56:30.280Z,15.55
2018-09-18T21:59:00.184Z,18.12
2018-09-18T22:01:31.004Z,16.82
2018-09-18T22:04:00.985Z,16.15
2018-09-18T22:06:31.095Z,19.87
2018-09-18T22:09:01.904Z,17.02
2018-09-18T22:11:33.240Z,23.22
2018-09-18T22:14:03.724Z,14.90
2018-09-18T22:16:34.155Z,19.90
2018-09-18T22:19:05.065Z,17.27
2018-09-18T22:21:35.118Z,19.07
2018-09-18T22:24:05.713Z,18.82
2018-09-18T22:26:35.565Z,17.75
2018-09-18T22:29:05.473Z,23.07
2018-09-18T22:31:35.514Z,23.80
2018-09-18T22:34:06.466Z,19.80
2018-09-18T22:36:36.568Z,14.87
2018-09-18T22:39:10.486Z,17.52
2018-09-18T22:41:41.118Z,23.73
2018-09-18T22:44:11.135Z,20.30
2018-09-18T22:46:43.721Z,19.40
2018-09-18T22:49:43.268Z,17.25
2018-09-18T22:52:13.244Z,19.98
2018-09-18T22:54:43.670Z,20.77
2018-09-18T22:57:14.911Z,13.45
2018-09-18T22:59:45.533Z,12.50
2018-09-18T23:02:19.022Z,14.58
2018-09-18T23:04:49.715Z,18.60
2018-09-18T23:07:19.617Z,18.52
2018-09-18T23:09:50.420Z,16.70
2018-09-18T23:12:20.535Z,18.95
2018-09-18T23:14:50.457Z,24.07
2018-09-18T23:17:22.101Z,22.45
2018-09-18T23:19:52.433Z,19.73
2018-09-18T23:22:22.343Z,21.75
2018-09-18T23:24:52.456Z,16.97
2018-09-18T23:27:22.576Z,17.10
2018-09-18T23:29:52.447Z,23.00
2018-09-18T23:32:23.575Z,22.55
2018-09-18T23:34:53.859Z,18.10
2018-09-18T23:37:24.081Z,19.90
2018-09-18T23:39:56.138Z,13.98
2018-09-18T23:42:26.107Z,10.85
2018-09-18T23:44:56.083Z,16.12
2018-09-18T23:47:26.525Z,18.52
2018-09-18T23:49:56.405Z,15.75
2018-09-18T23:52:26.379Z,17.73
2018-09-18T23:54:56.357Z,22.37
2018-09-18T23:57:26.226Z,16.55
2018-09-18T23:59:56.818Z,13.13
